createdAt,value
2022-10-14T00:02:16.506Z,43.44
2022-10-14T00:07:35.947Z,43.16
2022-10-14T00:10:03.618Z,43.14
2022-10-14T00:12:31.314Z,43.56
2022-10-14T00:14:58.974Z,43.19
2022-10-14T00:17:26.670Z,43.27
2022-10-14T00:19:54.490Z,43.44
2022-10-14T00:22:23.975Z,43.42
2022-10-14T00:24:51.656Z,43.15
2022-10-14T00:27:19.677Z,43.21
2022-10-14T00:29:47.549Z,43.51
2022-10-14T00:32:15.239Z,43.37
2022-10-14T00:34:42.989Z,43.27
2022-10-14T00:37:10.768Z,43.50
2022-10-14T00:39:38.494Z,43.54
2022-10-14T00:42:06.238Z,43.51
2022-10-14T00:44:33.931Z,43.46
2022-10-14T00:47:01.590Z,43.31
2022-10-14T00:49:29.263Z,43.36
2022-10-14T00:51:59.290Z,43.58
2022-10-14T00:54:27.007Z,43.65
2022-10-14T00:56:54.611Z,43.35
2022-10-14T00:59:22.451Z,43.50
2022-10-14T01:01:50.135Z,43.23
2022-10-14T01:04:17.833Z,43.69
2022-10-14T01:06:45.642Z,43.46
2022-10-14T01:09:13.368Z,43.54
2022-10-14T01:11:41.776Z,43.26
2022-10-14T01:14:09.445Z,43.43
2022-10-14T01:16:37.180Z,43.33
2022-10-14T01:19:04.829Z,43.54
2022-10-14T01:21:32.636Z,43.35
2022-10-14T01:24:01.229Z,43.74
2022-10-14T01:26:28.941Z,43.59
2022-10-14T01:28:56.633Z,43.30
2022-10-14T01:31:24.307Z,43.44
2022-10-14T01:33:51.988Z,43.38
2022-10-14T01:36:21.774Z,43.34
2022-10-14T01:38:51.857Z,43.47
2022-10-14T01:41:19.520Z,43.64
2022-10-14T01:43:47.233Z,43.69
2022-10-14T01:46:18.827Z,43.74
2022-10-14T01:52:10.861Z,43.47
2022-10-14T01:57:36.092Z,43.68
2022-10-14T02:00:04.192Z,43.73
2022-10-14T02:02:31.881Z,43.65
2022-10-14T02:04:59.654Z,43.71
2022-10-14T02:07:27.540Z,43.49
2022-10-14T02:09:55.213Z,43.36
2022-10-14T02:12:23.319Z,43.42
2022-10-14T02:14:51.319Z,43.78
2022-10-14T02:17:19.038Z,43.48
2022-10-14T02:19:46.735Z,43.65
2022-10-14T02:22:14.523Z,43.47
2022-10-14T02:24:42.330Z,43.52
2022-10-14T02:27:10.105Z,43.40
2022-10-14T02:29:37.804Z,43.54
2022-10-14T02:32:05.446Z,43.95
2022-10-14T02:34:33.195Z,43.46
2022-10-14T02:37:00.874Z,43.61
2022-10-14T02:39:28.561Z,43.51
2022-10-14T02:41:56.610Z,43.55
2022-10-14T02:44:24.335Z,43.56
2022-10-14T02:46:52.029Z,43.56
2022-10-14T02:49:19.715Z,43.79
2022-10-14T02:51:47.402Z,43.72
2022-10-14T02:54:15.085Z,43.72
2022-10-14T02:56:42.789Z,43.61
2022-10-14T02:59:13.525Z,43.73
2022-10-14T03:01:41.208Z,43.96
2022-10-14T03:04:08.940Z,43.62
2022-10-14T03:06:36.856Z,43.88
2022-10-14T03:09:08.767Z,43.92
2022-10-14T03:11:36.617Z,43.66
2022-10-14T03:14:04.456Z,43.66
2022-10-14T03:16:32.131Z,43.92
2022-10-14T03:19:02.218Z,43.95
2022-10-14T03:21:29.910Z,43.90
2022-10-14T03:23:57.665Z,43.86
2022-10-14T03:26:26.914Z,43.92
2022-10-14T03:28:54.634Z,44.01
2022-10-14T03:31:22.313Z,43.90
2022-10-14T03:33:50.039Z,44.16
2022-10-14T03:36:17.736Z,43.83
2022-10-14T03:38:45.434Z,43.67
2022-10-14T03:41:13.095Z,43.84
2022-10-14T03:43:40.894Z,43.74
2022-10-14T03:46:08.626Z,44.15
2022-10-14T03:48:36.290Z,44.09
2022-10-14T03:51:03.971Z,44.10
2022-10-14T03:53:31.906Z,44.16
2022-10-14T03:55:59.537Z,43.77
2022-10-14T03:58:27.167Z,43.84
2022-10-14T04:00:54.858Z,44.14
2022-10-14T04:03:22.654Z,44.04
2022-10-14T04:05:50.318Z,44.20
2022-10-14T04:08:18.206Z,44.14
2022-10-14T04:10:45.855Z,44.09
2022-10-14T04:13:13.604Z,43.97
2022-10-14T04:15:41.250Z,43.95
2022-10-14T04:18:08.941Z,43.98
2022-10-14T04:20:36.609Z,44.04
2022-10-14T04:23:04.402Z,44.31
2022-10-14T04:25:32.103Z,44.26
2022-10-14T04:27:59.773Z,44.35
2022-10-14T04:30:27.471Z,44.40
2022-10-14T04:32:55.133Z,44.55
2022-10-14T04:35:22.794Z,44.71
2022-10-14T04:37:50.498Z,44.71
2022-10-14T04:40:20.517Z,44.85
2022-10-14T04:42:48.248Z,44.78
2022-10-14T04:45:15.890Z,44.92
2022-10-14T04:47:48.356Z,45.03
2022-10-14T04:50:16.328Z,44.67
2022-10-14T04:52:44.020Z,44.97
2022-10-14T04:55:11.679Z,45.04
2022-10-14T04:57:40.425Z,45.25
2022-10-14T05:00:08.119Z,45.18
2022-10-14T05:02:35.756Z,45.08
2022-10-14T05:05:03.615Z,45.21
2022-10-14T05:07:31.307Z,45.20
2022-10-14T05:09:59.092Z,45.00
2022-10-14T05:12:26.783Z,45.19
2022-10-14T05:14:55.051Z,45.24
2022-10-14T05:17:22.848Z,45.03
2022-10-14T05:19:50.590Z,45.16
2022-10-14T05:22:18.370Z,45.03
2022-10-14T05:24:46.404Z,44.83
2022-10-14T05:27:14.145Z,44.71
2022-10-14T05:29:41.800Z,44.98
2022-10-14T05:32:09.445Z,44.95
2022-10-14T05:34:37.079Z,44.89
2022-10-14T05:37:04.853Z,44.95
2022-10-14T05:39:32.546Z,44.43
2022-10-14T05:42:00.203Z,44.89
2022-10-14T05:44:28.022Z,44.90
2022-10-14T05:46:55.649Z,44.80
2022-10-14T05:49:23.338Z,44.92
2022-10-14T05:51:50.980Z,44.69
2022-10-14T05:54:18.711Z,44.84
2022-10-14T05:56:46.340Z,44.68
2022-10-14T05:59:14.106Z,44.75
2022-10-14T06:01:43.116Z,44.78
2022-10-14T06:04:10.786Z,44.76
2022-10-14T06:06:38.458Z,44.55
2022-10-14T06:09:11.027Z,44.42
2022-10-14T06:11:39.094Z,44.54
2022-10-14T06:14:06.945Z,44.72
2022-10-14T06:16:34.582Z,44.51
2022-10-14T06:19:02.278Z,44.59
2022-10-14T06:21:29.919Z,44.79
2022-10-14T06:23:57.551Z,44.41
2022-10-14T06:26:25.282Z,44.71
2022-10-14T06:28:53.233Z,44.34
2022-10-14T06:31:20.926Z,44.45
2022-10-14T06:33:48.589Z,44.62
2022-10-14T06:36:16.287Z,44.64
2022-10-14T06:38:43.996Z,44.69
2022-10-14T06:41:11.689Z,44.45
2022-10-14T06:43:39.402Z,44.45
2022-10-14T06:46:07.162Z,44.51
2022-10-14T06:48:34.841Z,44.21
2022-10-14T06:51:02.505Z,44.70
2022-10-14T06:53:30.187Z,44.55
2022-10-14T06:55:57.943Z,44.42
2022-10-14T06:58:25.578Z,44.57
2022-10-14T07:00:53.292Z,44.40
2022-10-14T07:03:21.006Z,44.51
2022-10-14T07:05:48.721Z,44.36
2022-10-14T07:08:16.467Z,44.71
2022-10-14T07:10:44.163Z,44.59
2022-10-14T07:13:11.885Z,44.45
2022-10-14T07:15:39.923Z,44.29
2022-10-14T07:18:07.711Z,44.55
2022-10-14T07:20:35.455Z,44.58
2022-10-14T07:23:03.229Z,44.61
2022-10-14T07:25:30.917Z,44.38
2022-10-14T07:27:58.854Z,44.39
2022-10-14T07:30:26.529Z,44.37
2022-10-14T07:32:54.230Z,44.47
2022-10-14T07:35:21.899Z,44.08
2022-10-14T07:37:50.503Z,44.40
2022-10-14T07:40:18.158Z,44.33
2022-10-14T07:42:45.823Z,44.09
2022-10-14T07:45:16.474Z,44.20
2022-10-14T07:47:44.185Z,44.39
2022-10-14T07:50:11.937Z,44.12
2022-10-14T07:52:39.637Z,44.14
2022-10-14T07:55:07.338Z,44.27
2022-10-14T07:57:35.018Z,44.28
2022-10-14T08:00:03.498Z,44.48
2022-10-14T08:02:31.254Z,44.39
2022-10-14T08:05:19.015Z,44.41
2022-10-14T08:07:46.685Z,44.34
2022-10-14T08:10:14.370Z,44.42
2022-10-14T08:12:42.196Z,44.43
2022-10-14T08:15:09.914Z,44.25
2022-10-14T08:17:37.646Z,44.02
2022-10-14T08:20:05.322Z,44.25
2022-10-14T08:22:33.051Z,44.08
2022-10-14T08:25:00.734Z,44.31
2022-10-14T08:27:28.447Z,44.16
2022-10-14T08:29:56.157Z,44.52
2022-10-14T08:32:24.764Z,44.18
2022-10-14T08:34:52.743Z,44.38
2022-10-14T08:37:20.417Z,44.34
2022-10-14T08:39:48.256Z,44.40
2022-10-14T08:42:16.767Z,44.29
2022-10-14T08:44:44.473Z,44.25
2022-10-14T08:47:12.192Z,44.04
2022-10-14T08:49:39.991Z,44.04
2022-10-14T08:52:07.671Z,43.64
2022-10-14T08:54:35.426Z,42.86
2022-10-14T08:57:03.190Z,42.97
2022-10-14T08:59:31.036Z,42.80
2022-10-14T09:01:58.896Z,42.74
2022-10-14T09:04:26.647Z,43.09
2022-10-14T09:06:54.413Z,43.04
2022-10-14T09:09:22.104Z,43.19
2022-10-14T09:11:49.817Z,43.17
2022-10-14T09:14:17.497Z,43.18
2022-10-14T09:16:50.373Z,43.09
2022-10-14T09:19:21.114Z,43.06
2022-10-14T09:21:52.658Z,43.29
2022-10-14T09:24:21.142Z,43.29
2022-10-14T09:26:48.989Z,43.39
2022-10-14T09:29:16.719Z,42.91
2022-10-14T09:31:44.406Z,43.37
2022-10-14T09:34:12.109Z,43.24
2022-10-14T09:36:39.820Z,43.17
2022-10-14T09:39:07.654Z,43.52
2022-10-14T09:41:35.337Z,43.57
2022-10-14T09:44:03.021Z,43.41
2022-10-14T09:46:30.658Z,43.58
2022-10-14T09:48:58.457Z,43.27
2022-10-14T09:51:26.211Z,43.38
2022-10-14T09:53:53.926Z,43.67
2022-10-14T09:56:21.633Z,43.52
2022-10-14T09:58:51.105Z,43.44
2022-10-14T10:01:19.110Z,43.64
2022-10-14T10:03:46.980Z,43.87
2022-10-14T10:06:14.785Z,43.39
2022-10-14T10:08:42.554Z,43.81
2022-10-14T10:11:11.195Z,43.47
2022-10-14T10:13:40.525Z,43.50
2022-10-14T10:16:08.248Z,43.77
2022-10-14T10:18:35.930Z,43.65
2022-10-14T10:21:06.443Z,43.77
2022-10-14T10:23:34.988Z,43.52
2022-10-14T10:26:03.228Z,43.71
2022-10-14T10:28:32.214Z,43.48
2022-10-14T10:30:59.965Z,43.84
2022-10-14T10:33:27.666Z,43.79
2022-10-14T10:35:55.688Z,44.10
2022-10-14T10:38:23.474Z,43.72
2022-10-14T10:40:51.354Z,43.82
2022-10-14T10:43:19.901Z,43.99
2022-10-14T10:45:47.591Z,43.65
2022-10-14T10:48:15.299Z,43.64
2022-10-14T10:50:43.017Z,43.65
2022-10-14T10:53:10.776Z,43.88
2022-10-14T10:55:38.539Z,44.06
2022-10-14T10:58:09.066Z,43.85
2022-10-14T11:00:37.838Z,43.89
2022-10-14T11:03:05.597Z,43.72
2022-10-14T11:05:33.278Z,43.52
2022-10-14T11:08:18.892Z,43.66
2022-10-14T11:11:04.458Z,43.63
2022-10-14T11:13:33.187Z,43.87
2022-10-14T11:16:01.250Z,44.07
2022-10-14T11:18:28.990Z,43.86
2022-10-14T11:20:56.794Z,43.87
2022-10-14T11:23:24.513Z,43.86
2022-10-14T11:25:52.538Z,43.96
2022-10-14T11:28:20.310Z,43.66
2022-10-14T11:30:49.358Z,43.55
2022-10-14T11:33:17.105Z,43.79
2022-10-14T11:35:44.865Z,43.82
2022-10-14T11:38:12.507Z,43.88
2022-10-14T11:40:40.385Z,43.83
2022-10-14T11:43:08.107Z,43.92
2022-10-14T11:45:35.873Z,43.55
2022-10-14T11:48:03.594Z,43.80
2022-10-14T11:50:31.248Z,43.88
2022-10-14T11:52:58.950Z,43.81
2022-10-14T11:55:29.206Z,43.92
2022-10-14T11:57:58.293Z,43.98
2022-10-14T12:02:54.583Z,43.70
2022-10-14T12:05:22.268Z,43.90
2022-10-14T12:07:49.932Z,44.01
2022-10-14T12:10:17.624Z,43.75
2022-10-14T12:12:45.327Z,43.89
2022-10-14T12:15:13.010Z,43.74
2022-10-14T12:17:40.708Z,44.03
2022-10-14T12:20:08.430Z,43.88
2022-10-14T12:22:36.264Z,43.68
2022-10-14T12:25:03.939Z,43.69
2022-10-14T12:27:31.713Z,43.75
2022-10-14T12:29:59.413Z,43.97
2022-10-14T12:32:27.613Z,44.09
2022-10-14T12:34:55.430Z,44.20
2022-10-14T12:37:27.281Z,43.77
2022-10-14T12:39:58.396Z,43.89
2022-10-14T12:42:26.331Z,44.03
2022-10-14T12:44:56.132Z,44.10
2022-10-14T12:47:24.055Z,44.23
2022-10-14T12:49:52.130Z,43.90
2022-10-14T12:52:19.882Z,44.07
2022-10-14T12:54:47.688Z,43.98
2022-10-14T12:57:15.495Z,44.13
2022-10-14T12:59:43.209Z,44.03
2022-10-14T13:02:11.009Z,44.11
2022-10-14T13:04:38.695Z,44.12
2022-10-14T13:07:11.675Z,43.83
2022-10-14T13:09:39.742Z,44.15
2022-10-14T13:12:07.455Z,43.64
2022-10-14T13:14:35.585Z,44.14
2022-10-14T13:17:03.275Z,43.74
2022-10-14T13:19:30.959Z,43.71
2022-10-14T13:21:59.184Z,43.82
2022-10-14T13:24:27.119Z,43.79
2022-10-14T13:26:55.078Z,43.95
2022-10-14T13:29:22.756Z,43.73
2022-10-14T13:31:50.562Z,44.20
2022-10-14T13:34:18.283Z,44.12
2022-10-14T13:36:46.003Z,43.95
2022-10-14T13:39:13.916Z,44.15
2022-10-14T13:41:42.256Z,44.15
2022-10-14T13:44:10.652Z,43.93
2022-10-14T13:46:38.446Z,44.15
2022-10-14T13:49:06.243Z,44.22
2022-10-14T13:51:37.656Z,43.97
2022-10-14T13:54:08.076Z,44.17
2022-10-14T13:56:36.014Z,44.17
2022-10-14T13:59:08.050Z,44.31
2022-10-14T14:01:44.901Z,44.00
2022-10-14T14:04:12.790Z,44.21
2022-10-14T14:06:52.323Z,42.28
2022-10-14T14:09:28.107Z,36.25
2022-10-14T14:11:55.997Z,30.36
2022-10-14T14:14:23.726Z,25.54
2022-10-14T14:16:51.997Z,23.67
2022-10-14T14:19:19.687Z,22.85
2022-10-14T14:21:47.620Z,22.80
2022-10-14T14:24:15.549Z,23.15
2022-10-14T14:26:43.293Z,23.34
2022-10-14T14:29:11.154Z,23.80
2022-10-14T14:32:05.044Z,24.04
2022-10-14T14:34:26.733Z,23.68
2022-10-14T14:36:58.086Z,23.86
2022-10-14T14:39:33.732Z,23.60
2022-10-14T14:42:02.155Z,23.79
2022-10-14T14:44:29.934Z,24.45
2022-10-14T14:46:57.649Z,25.07
2022-10-14T14:49:25.359Z,25.79
2022-10-14T14:51:53.279Z,26.80
2022-10-14T14:54:21.244Z,27.35
2022-10-14T14:56:48.946Z,27.88
2022-10-14T14:59:16.840Z,28.99
2022-10-14T15:01:44.651Z,29.65
2022-10-14T15:04:14.593Z,29.84
2022-10-14T15:06:53.550Z,30.58
2022-10-14T15:09:21.311Z,31.35
2022-10-14T15:11:49.593Z,31.89
2022-10-14T15:14:20.105Z,32.41
2022-10-14T15:16:51.163Z,32.89
2022-10-14T15:19:18.936Z,33.00
2022-10-14T15:21:47.878Z,33.66
2022-10-14T15:24:25.916Z,33.98
2022-10-14T15:27:13.868Z,34.48
2022-10-14T15:30:03.127Z,35.22
2022-10-14T15:32:31.205Z,35.10
2022-10-14T15:34:59.564Z,35.79
2022-10-14T15:37:27.214Z,36.10
2022-10-14T15:39:54.999Z,36.01
2022-10-14T15:42:23.599Z,36.18
2022-10-14T15:44:51.620Z,36.59
2022-10-14T15:47:22.372Z,37.31
2022-10-14T15:49:50.466Z,37.12
2022-10-14T15:52:20.392Z,37.40
2022-10-14T15:54:50.887Z,37.41
2022-10-14T15:57:18.557Z,36.57
2022-10-14T15:59:46.234Z,36.27
2022-10-14T16:02:13.937Z,35.65
2022-10-14T16:05:00.688Z,34.63
2022-10-14T16:07:29.242Z,33.50
2022-10-14T16:09:58.973Z,32.43
2022-10-14T16:12:26.645Z,31.73
2022-10-14T16:14:54.537Z,30.80
2022-10-14T16:17:22.404Z,29.97
2022-10-14T16:19:50.189Z,29.63
2022-10-14T16:22:17.876Z,29.92
2022-10-14T16:24:46.284Z,29.83
2022-10-14T16:27:13.956Z,30.74
2022-10-14T16:29:41.601Z,30.96
2022-10-14T16:32:09.614Z,31.47
2022-10-14T16:34:37.263Z,31.77
2022-10-14T16:37:07.050Z,32.39
2022-10-14T16:39:34.853Z,32.70
2022-10-14T16:42:02.803Z,33.11
2022-10-14T16:44:30.497Z,33.76
2022-10-14T16:47:15.875Z,33.96
2022-10-14T16:49:43.492Z,34.64
2022-10-14T16:52:11.111Z,34.79
2022-10-14T16:54:38.904Z,35.03
2022-10-14T16:57:06.760Z,35.39
2022-10-14T16:59:34.406Z,35.78
2022-10-14T17:02:02.016Z,35.75
2022-10-14T17:04:29.619Z,36.67
2022-10-14T17:06:57.548Z,36.86
2022-10-14T17:11:57.965Z,37.50
2022-10-14T17:14:25.683Z,37.72
2022-10-14T17:16:53.428Z,37.70
2022-10-14T17:19:21.201Z,37.63
2022-10-14T17:21:49.095Z,38.14
2022-10-14T17:24:17.129Z,38.63
2022-10-14T17:26:45.407Z,38.60
2022-10-14T17:29:13.142Z,37.11
2022-10-14T17:31:41.607Z,36.19
2022-10-14T17:34:09.305Z,34.20
2022-10-14T17:36:36.925Z,31.73
2022-10-14T17:39:05.010Z,29.31
2022-10-14T17:41:32.605Z,27.92
2022-10-14T17:44:01.284Z,27.38
2022-10-14T17:46:29.450Z,26.95
2022-10-14T17:48:57.580Z,27.63
2022-10-14T17:51:25.570Z,28.11
2022-10-14T17:53:53.240Z,28.74
2022-10-14T17:56:21.210Z,29.29
2022-10-14T17:58:49.064Z,28.92
2022-10-14T18:01:16.841Z,29.67
2022-10-14T18:03:44.621Z,30.45
2022-10-14T18:06:12.309Z,31.12
2022-10-14T18:08:40.335Z,31.80
2022-10-14T18:11:11.090Z,32.23
2022-10-14T18:16:07.627Z,33.17
2022-10-14T18:18:35.747Z,33.67
2022-10-14T18:21:04.680Z,34.05
2022-10-14T18:23:32.530Z,34.05
2022-10-14T18:26:00.606Z,34.39
2022-10-14T18:28:28.316Z,34.90
2022-10-14T18:30:55.998Z,35.45
2022-10-14T18:33:23.927Z,35.93
2022-10-14T18:35:52.586Z,36.06
2022-10-14T18:38:20.247Z,36.33
2022-10-14T18:40:47.945Z,36.88
2022-10-14T18:43:15.637Z,36.65
2022-10-14T18:45:43.402Z,37.31
2022-10-14T18:48:11.643Z,37.51
2022-10-14T18:50:39.336Z,37.91
2022-10-14T18:53:07.287Z,38.07
2022-10-14T18:55:34.958Z,38.19
2022-10-14T18:58:02.650Z,37.92
2022-10-14T19:00:30.345Z,38.77
2022-10-14T19:02:58.104Z,38.95
2022-10-14T19:05:28.556Z,38.83
2022-10-14T19:08:00.328Z,39.39
2022-10-14T19:10:28.023Z,39.24
2022-10-14T19:12:55.936Z,39.36
2022-10-14T19:15:26.181Z,39.45
2022-10-14T19:17:54.634Z,39.02
2022-10-14T19:20:22.465Z,39.72
2022-10-14T19:22:54.236Z,39.82
2022-10-14T19:25:24.125Z,39.89
2022-10-14T19:27:51.767Z,40.08
2022-10-14T19:30:19.547Z,39.83
2022-10-14T19:32:47.236Z,39.64
2022-10-14T19:49:33.565Z,40.64
2022-10-14T19:52:01.486Z,41.05
2022-10-14T19:54:29.265Z,40.89
2022-10-14T19:56:56.970Z,41.43
2022-10-14T19:59:25.050Z,41.46
2022-10-14T20:01:52.969Z,41.03
2022-10-14T20:04:25.164Z,41.48
2022-10-14T20:06:55.382Z,41.42
2022-10-14T20:09:23.250Z,41.26
2022-10-14T20:11:51.114Z,41.35
2022-10-14T20:14:19.048Z,41.58
2022-10-14T20:16:46.794Z,41.99
2022-10-14T20:19:14.766Z,41.99
2022-10-14T20:21:42.597Z,42.19
2022-10-14T20:24:10.501Z,41.61
2022-10-14T20:26:38.453Z,42.08
2022-10-14T20:29:06.365Z,41.98
2022-10-14T20:31:34.190Z,41.99
2022-10-14T20:34:02.937Z,41.85
2022-10-14T20:36:32.060Z,42.04
2022-10-14T20:38:59.986Z,42.19
2022-10-14T20:41:27.986Z,41.92
2022-10-14T20:43:56.128Z,42.18
2022-10-14T20:46:25.104Z,41.99
2022-10-14T20:48:53.348Z,42.34
2022-10-14T20:51:22.917Z,41.99
2022-10-14T20:53:50.712Z,42.31
2022-10-14T20:56:18.609Z,42.59
2022-10-14T20:58:46.387Z,42.15
2022-10-14T21:01:14.146Z,42.65
2022-10-14T21:03:42.009Z,42.42
2022-10-14T21:06:09.882Z,42.29
2022-10-14T21:08:37.789Z,42.56
2022-10-14T21:11:07.030Z,42.35
2022-10-14T21:13:36.928Z,42.57
2022-10-14T21:16:04.803Z,42.55
2022-10-14T21:18:32.673Z,42.77
2022-10-14T21:21:00.418Z,42.73
2022-10-14T21:23:28.129Z,43.08
2022-10-14T21:25:56.168Z,42.75
2022-10-14T21:28:23.939Z,42.60
2022-10-14T21:30:51.843Z,42.83
2022-10-14T21:33:19.525Z,42.96
2022-10-14T21:35:47.239Z,42.99
2022-10-14T21:38:15.014Z,42.96
2022-10-14T21:40:42.768Z,43.14
2022-10-14T21:43:10.601Z,43.10
2022-10-14T21:45:38.379Z,42.88
2022-10-14T21:48:06.288Z,43.24
2022-10-14T21:50:34.034Z,43.23
2022-10-14T21:53:01.930Z,42.90
2022-10-14T21:55:29.739Z,42.91
2022-10-14T21:57:57.655Z,43.13
2022-10-14T22:00:25.597Z,43.20
2022-10-14T22:02:53.490Z,42.79
2022-10-14T22:05:21.256Z,42.82
2022-10-14T22:07:49.074Z,43.03
2022-10-14T22:10:31.038Z,43.06
2022-10-14T22:12:58.978Z,43.34
2022-10-14T22:15:26.867Z,43.06
2022-10-14T22:17:55.554Z,43.24
2022-10-14T22:20:23.369Z,43.26
2022-10-14T22:22:51.257Z,42.75
2022-10-14T22:25:19.242Z,42.88
2022-10-14T22:27:47.605Z,43.26
2022-10-14T22:30:15.371Z,42.87
2022-10-14T22:32:43.090Z,43.08
2022-10-14T22:35:10.807Z,43.04
2022-10-14T22:37:38.498Z,42.94
2022-10-14T22:40:06.423Z,43.26
2022-10-14T22:42:35.252Z,42.82
2022-10-14T22:45:04.797Z,42.97
2022-10-14T22:47:32.866Z,42.87
2022-10-14T22:50:00.964Z,43.09
2022-10-14T22:52:28.714Z,42.89
2022-10-14T22:54:56.522Z,42.72
2022-10-14T22:57:24.252Z,42.96
2022-10-14T22:59:52.085Z,43.15
2022-10-14T23:02:20.053Z,43.05
2022-10-14T23:04:48.058Z,43.43
2022-10-14T23:07:15.989Z,42.97
2022-10-14T23:09:43.672Z,43.42
2022-10-14T23:12:11.757Z,43.21
2022-10-14T23:14:39.523Z,42.96
2022-10-14T23:17:07.275Z,43.07
2022-10-14T23:19:35.202Z,43.44
2022-10-14T23:22:02.940Z,43.17
2022-10-14T23:24:30.824Z,43.39
2022-10-14T23:26:58.762Z,43.13
2022-10-14T23:29:26.472Z,43.37
2022-10-14T23:31:56.916Z,43.56
2022-10-14T23:34:24.734Z,43.25
2022-10-14T23:36:52.525Z,43.08
2022-10-14T23:39:20.277Z,43.18
2022-10-14T23:41:47.994Z,43.44
2022-10-14T23:44:15.876Z,43.40
2022-10-14T23:46:43.884Z,43.58
2022-10-14T23:49:25.723Z,43.16
2022-10-14T23:51:54.038Z,43.27
2022-10-14T23:54:21.992Z,43.38
2022-10-14T23:56:49.903Z,43.65
2022-10-14T23:59:17.713Z,43.14
